There is a communication problem. Go directly to the Meteoalarm site : www.meteoalarm.eu and check the Weather-warnings there .

Nearby METAR Reports

 

KSJC - San Jose, California, USA
Distance from station: NØ 14km
Oppdatert: 30/06/2022 20:53
Few Clouds
Few Clouds
 Vind fra ØNØ
Vind: ØNØ 11 km/h
Temperatur: 22°C
Duggpunkt: 9°C
Fuktighet: 44%
Barometer: 1017.3 hPa
Clouds: Few Clouds
Visibility: 16 km
Cloud details: Few Clouds 274 m
2022/06/30 18:53 KSJC 301853Z 06006KT 10SM FEW009 22/09 A3004 RMK AO2 SLP173 T02220094
KNUQ - Moffett Nas/Mtn, California, USA
Distance from station: N 14km
Oppdatert: 28/06/2022 13:55
NOT Current

 Vind fra calm
Vind: Stille
Temperatur: 15°C
Duggpunkt: 12°C
Fuktighet: 82%
Barometer: 1017.9 hPa
Visibility: 16 km
2022/06/28 11:55 KNUQ 281155Z AUTO 00000KT 10SM 15/12 A3006 RMK AO2
 
KPAO - Palo Alto, California, USA
Distance from station: NNV 23km
Oppdatert: 30/06/2022 01:47
NOT Current
Klart
Klart
 Vind fra NNV
Vind: NNV 33 km/h
Temperatur: 19°C
Duggpunkt: 14°C
Fuktighet: 73%
Barometer: 1016.3 hPa
Clouds: Klart
Visibility: 16 km
2022/06/29 23:47 KPAO 292347Z 34018KT 10SM SKC 19/14 A3001
KRHV - San Jose/Reid, California, USA
Distance from station: ØNØ 19km
Oppdatert: 30/06/2022 20:50
Klart
Klart
 Vind fra varies
Vind: varies 7 km/h
Temperatur: 21°C
Duggpunkt: 10°C
Fuktighet: 50%
Barometer: 1017.6 hPa
Clouds: Klart
Visibility: 16 km
2022/06/30 18:50 KRHV 301850Z VRB04KT 10SM SKC 21/10 A3005
 
KOAK - Oakland, California, USA
Distance from station: NNV 50km
Oppdatert: 30/06/2022 20:58
Hovedsaklig skyet
Hovedsaklig skyet
 Vind fra V
Vind: V 20 km/h
Temperatur: 14°C
Duggpunkt: 10°C
Fuktighet: 77%
Barometer: 1018.6 hPa
Clouds: Hovedsaklig skyet
Visibility: 11 km
Cloud details: Few Clouds 152 m
Hovedsaklig skyet 366 m
Hovedsaklig skyet 579 m
2022/06/30 18:58 KOAK 301858Z 26011KT 7SM FEW005 BKN012 BKN019 14/10 A3008 RMK AO2 T01440100
KSQL - San Carlos Airpo, California, USA
Distance from station: NV 34km
Oppdatert: 30/06/2022 20:54
Few Clouds
Few Clouds
 Vind fra VSV
Vind: VSV 24 km/h, Vindkast: 37 km/h
Temperatur: 17°C
Duggpunkt: 10°C
Fuktighet: 64%
Barometer: 1018.3 hPa
Clouds: Few Clouds
Visibility: 16 km
Cloud details: Few Clouds 427 m
2022/06/30 18:54 KSQL 301854Z 24013G20KT 10SM FEW014 17/10 A3007
 
KSFO - San Francisco, California, USA
Distance from station: NV 49km
Oppdatert: 30/06/2022 21:07
Hovedsaklig skyet
Hovedsaklig skyet
 Vind fra V
Vind: V 30 km/h, Vindkast: 43 km/h
Temperatur: 16°C
Duggpunkt: 10°C
Fuktighet: 68%
Barometer: 1018.3 hPa
Clouds: Hovedsaklig skyet
Visibility: 16 km
Cloud details: Few Clouds 183 m
Hovedsaklig skyet 457 m
2022/06/30 19:07 KSFO 301907Z 26016G23KT 10SM FEW006 BKN015 16/10 A3007 RMK AO2 T01610100
KE16 - San Martin, California, USA
Distance from station: ØSØ 43km
Oppdatert: 30/06/2022 21:15
Klart
Klart
 Vind fra SØ
Vind: SØ 11 km/h
Temperatur: 19°C
Duggpunkt: 10°C
Fuktighet: 56%
Barometer: 1018.3 hPa
Clouds: Klart
Visibility: 16 km
2022/06/30 19:15 KE16 301915Z AUTO 13006KT 10SM CLR 19/10 A3007 RMK AO2 PWINO PNO
 
KWVI - Watsonville, California, USA
Distance from station: SSØ 44km
Oppdatert: 30/06/2022 20:53
Overskyet
Overskyet
 Vind fra SV
Vind: SV 9 km/h
Temperatur: 16°C
Duggpunkt: 11°C
Fuktighet: 72%
Barometer: 1019 hPa
Clouds: Overskyet
Visibility: 16 km
Cloud details: Overskyet 427 m
2022/06/30 18:53 KWVI 301853Z AUTO 22005KT 10SM OVC014 16/11 A3009 RMK AO2 SLP188 T01560106
KHAF - Half Moon Bay, California, USA
Distance from station: VNV 50km
Oppdatert: 30/06/2022 21:15
Mist, Hovedsaklig skyet
Mist, Hovedsaklig skyet
 Vind fra NV
Vind: NV 15 km/h
Temperatur: 13°C
Duggpunkt: 12°C
Fuktighet: 94%
Barometer: 1019.6 hPa
Oversikt: Mist
Clouds: Hovedsaklig skyet
Visibility: 8 km
Cloud details: Few Clouds 244 m
Hovedsaklig skyet 396 m
2022/06/30 19:15 KHAF 301915Z AUTO 31008KT 5SM BR FEW008 BKN013 13/12 A3011 RMK AO2
 
KHWD - Hayward, California, USA
Distance from station: N 44km
Oppdatert: 30/06/2022 20:54
Delvis skyet
Delvis skyet
 Vind fra V
Vind: V 20 km/h
Temperatur: 17°C
Duggpunkt: 11°C
Fuktighet: 68%
Barometer: 1018.3 hPa
Clouds: Delvis skyet
Visibility: 16 km
Cloud details: Delvis skyet 457 m
2022/06/30 18:54 KHWD 301854Z 28011KT 10SM SCT015 17/11 A3007 RMK AO2 SLP192 T01670106
KLVK - Livermore, California, USA
Distance from station: NNØ 51km
Oppdatert: 30/06/2022 20:53
Klart
Klart
 Vind fra VNV
Vind: VNV 19 km/h
Temperatur: 17°C
Duggpunkt: 11°C
Fuktighet: 68%
Barometer: 1016.9 hPa
Clouds: Klart
Visibility: 16 km
2022/06/30 18:53 KLVK 301853Z 30010KT 10SM CLR 17/11 A3003 RMK AO2 SLP166 T01720106